sensor_id;sensor_type;location;lat;lon;timestamp;P1;durP1;ratioP1;P2;durP2;ratioP2
32838;SDS011;19182;41.820;12.808;2023-06-05T00:00:52;24.27;;;17.58;;
32838;SDS011;19182;41.820;12.808;2023-06-05T00:03:18;23.30;;;17.67;;
32838;SDS011;19182;41.820;12.808;2023-06-05T00:05:44;26.05;;;18.90;;
32838;SDS011;19182;41.820;12.808;2023-06-05T00:08:10;25.95;;;18.35;;
32838;SDS011;19182;41.820;12.808;2023-06-05T00:10:36;24.17;;;18.58;;
32838;SDS011;19182;41.820;12.808;2023-06-05T00:13:02;28.77;;;18.67;;
32838;SDS011;19182;41.820;12.808;2023-06-05T00:15:28;24.75;;;18.65;;
32838;SDS011;19182;41.820;12.808;2023-06-05T00:17:56;27.23;;;18.25;;
32838;SDS011;19182;41.820;12.808;2023-06-05T00:20:22;27.92;;;17.90;;
32838;SDS011;19182;41.820;12.808;2023-06-05T00:22:47;25.10;;;18.83;;
32838;SDS011;19182;41.820;12.808;2023-06-05T00:25:13;27.30;;;19.60;;
32838;SDS011;19182;41.820;12.808;2023-06-05T00:27:39;23.48;;;18.05;;
32838;SDS011;19182;41.820;12.808;2023-06-05T00:30:06;24.58;;;17.50;;
32838;SDS011;19182;41.820;12.808;2023-06-05T00:32:35;22.25;;;17.50;;
32838;SDS011;19182;41.820;12.808;2023-06-05T00:35:01;22.80;;;18.73;;
32838;SDS011;19182;41.820;12.808;2023-06-05T00:37:29;24.30;;;18.83;;
32838;SDS011;19182;41.820;12.808;2023-06-05T00:39:55;23.40;;;18.17;;
32838;SDS011;19182;41.820;12.808;2023-06-05T00:42:20;23.05;;;17.67;;
32838;SDS011;19182;41.820;12.808;2023-06-05T00:44:46;22.08;;;17.90;;
32838;SDS011;19182;41.820;12.808;2023-06-05T00:47:13;26.08;;;18.48;;
32838;SDS011;19182;41.820;12.808;2023-06-05T00:49:40;24.40;;;18.00;;
32838;SDS011;19182;41.820;12.808;2023-06-05T00:52:06;24.35;;;19.30;;
32838;SDS011;19182;41.820;12.808;2023-06-05T00:54:32;24.40;;;19.88;;
32838;SDS011;19182;41.820;12.808;2023-06-05T00:56:59;22.13;;;18.42;;
32838;SDS011;19182;41.820;12.808;2023-06-05T00:59:36;29.05;;;19.50;;
32838;SDS011;19182;41.820;12.808;2023-06-05T01:02:05;25.58;;;20.15;;
32838;SDS011;19182;41.820;12.808;2023-06-05T01:04:39;23.33;;;18.17;;
32838;SDS011;19182;41.820;12.808;2023-06-05T01:07:14;22.23;;;18.05;;
32838;SDS011;19182;41.820;12.808;2023-06-05T01:09:41;26.27;;;19.23;;
32838;SDS011;19182;41.820;12.808;2023-06-05T01:12:26;23.70;;;18.55;;
32838;SDS011;19182;41.820;12.808;2023-06-05T01:14:58;24.63;;;16.83;;
32838;SDS011;19182;41.820;12.808;2023-06-05T01:17:27;23.00;;;14.57;;
32838;SDS011;19182;41.820;12.808;2023-06-05T01:19:55;18.20;;;13.10;;
32838;SDS011;19182;41.820;12.808;2023-06-05T01:22:24;17.05;;;11.05;;
32838;SDS011;19182;41.820;12.808;2023-06-05T01:24:50;14.60;;;11.10;;
32838;SDS011;19182;41.820;12.808;2023-06-05T01:27:19;14.82;;;10.95;;
32838;SDS011;19182;41.820;12.808;2023-06-05T01:30:06;12.70;;;10.50;;
32838;SDS011;19182;41.820;12.808;2023-06-05T01:32:52;12.38;;;9.43;;
32838;SDS011;19182;41.820;12.808;2023-06-05T01:35:22;12.52;;;9.30;;
32838;SDS011;19182;41.820;12.808;2023-06-05T01:37:52;15.15;;;9.48;;
32838;SDS011;19182;41.820;12.808;2023-06-05T01:40:20;13.88;;;9.90;;
32838;SDS011;19182;41.820;12.808;2023-06-05T01:42:48;13.75;;;9.70;;
32838;SDS011;19182;41.820;12.808;2023-06-05T01:45:17;14.30;;;9.52;;
32838;SDS011;19182;41.820;12.808;2023-06-05T01:47:44;15.18;;;10.02;;
32838;SDS011;19182;41.820;12.808;2023-06-05T01:50:13;16.45;;;10.48;;
32838;SDS011;19182;41.820;12.808;2023-06-05T01:52:42;13.27;;;10.48;;
32838;SDS011;19182;41.820;12.808;2023-06-05T01:55:13;16.88;;;10.85;;
32838;SDS011;19182;41.820;12.808;2023-06-05T01:57:42;14.80;;;10.82;;
32838;SDS011;19182;41.820;12.808;2023-06-05T02:00:08;14.70;;;10.27;;
32838;SDS011;19182;41.820;12.808;2023-06-05T02:05:13;15.02;;;10.68;;
32838;SDS011;19182;41.820;12.808;2023-06-05T02:07:40;19.25;;;11.30;;
32838;SDS011;19182;41.820;12.808;2023-06-05T02:10:08;14.45;;;10.45;;
32838;SDS011;19182;41.820;12.808;2023-06-05T02:12:35;15.07;;;10.40;;
32838;SDS011;19182;41.820;12.808;2023-06-05T02:15:02;14.02;;;10.48;;
32838;SDS011;19182;41.820;12.808;2023-06-05T02:17:29;15.27;;;10.40;;
32838;SDS011;19182;41.820;12.808;2023-06-05T02:19:55;16.33;;;10.40;;
32838;SDS011;19182;41.820;12.808;2023-06-05T02:22:21;15.32;;;10.25;;
32838;SDS011;19182;41.820;12.808;2023-06-05T02:24:48;16.90;;;10.00;;
32838;SDS011;19182;41.820;12.808;2023-06-05T02:27:17;13.35;;;9.70;;
32838;SDS011;19182;41.820;12.808;2023-06-05T02:29:42;13.02;;;9.07;;
32838;SDS011;19182;41.820;12.808;2023-06-05T02:32:09;14.93;;;9.05;;
32838;SDS011;19182;41.820;12.808;2023-06-05T02:34:37;14.60;;;10.05;;
32838;SDS011;19182;41.820;12.808;2023-06-05T02:37:03;15.02;;;10.20;;
32838;SDS011;19182;41.820;12.808;2023-06-05T02:39:28;19.52;;;10.90;;
32838;SDS011;19182;41.820;12.808;2023-06-05T02:41:57;17.20;;;11.43;;
32838;SDS011;19182;41.820;12.808;2023-06-05T02:44:22;14.73;;;10.20;;
32838;SDS011;19182;41.820;12.808;2023-06-05T02:46:48;13.88;;;9.65;;
32838;SDS011;19182;41.820;12.808;2023-06-05T02:49:14;12.70;;;8.68;;
32838;SDS011;19182;41.820;12.808;2023-06-05T02:51:40;12.77;;;8.57;;
32838;SDS011;19182;41.820;12.808;2023-06-05T02:54:05;13.40;;;9.02;;
32838;SDS011;19182;41.820;12.808;2023-06-05T02:56:32;12.27;;;7.78;;
32838;SDS011;19182;41.820;12.808;2023-06-05T02:58:57;14.15;;;8.05;;
32838;SDS011;19182;41.820;12.808;2023-06-05T03:01:27;11.68;;;6.85;;
32838;SDS011;19182;41.820;12.808;2023-06-05T03:03:59;11.20;;;7.72;;
32838;SDS011;19182;41.820;12.808;2023-06-05T03:06:27;13.30;;;8.20;;
32838;SDS011;19182;41.820;12.808;2023-06-05T03:08:58;9.98;;;7.15;;
32838;SDS011;19182;41.820;12.808;2023-06-05T03:11:24;13.13;;;7.85;;
32838;SDS011;19182;41.820;12.808;2023-06-05T03:13:51;13.93;;;8.18;;
32838;SDS011;19182;41.820;12.808;2023-06-05T03:16:18;12.75;;;8.10;;
32838;SDS011;19182;41.820;12.808;2023-06-05T03:18:44;13.18;;;7.85;;
32838;SDS011;19182;41.820;12.808;2023-06-05T03:21:11;11.75;;;7.60;;
32838;SDS011;19182;41.820;12.808;2023-06-05T03:23:37;14.48;;;6.82;;
32838;SDS011;19182;41.820;12.808;2023-06-05T03:26:02;11.60;;;6.80;;
32838;SDS011;19182;41.820;12.808;2023-06-05T03:28:29;13.48;;;7.68;;
32838;SDS011;19182;41.820;12.808;2023-06-05T03:30:59;14.05;;;7.90;;
32838;SDS011;19182;41.820;12.808;2023-06-05T03:33:25;12.50;;;6.63;;
32838;SDS011;19182;41.820;12.808;2023-06-05T03:35:52;10.38;;;6.75;;
32838;SDS011;19182;41.820;12.808;2023-06-05T03:38:18;10.77;;;7.30;;
32838;SDS011;19182;41.820;12.808;2023-06-05T03:40:43;15.77;;;6.85;;
32838;SDS011;19182;41.820;12.808;2023-06-05T03:43:10;17.67;;;7.30;;
32838;SDS011;19182;41.820;12.808;2023-06-05T03:45:38;11.63;;;6.97;;
32838;SDS011;19182;41.820;12.808;2023-06-05T03:48:05;14.52;;;7.53;;
32838;SDS011;19182;41.820;12.808;2023-06-05T03:50:34;15.15;;;8.23;;
32838;SDS011;19182;41.820;12.808;2023-06-05T03:53:02;15.90;;;7.85;;
32838;SDS011;19182;41.820;12.808;2023-06-05T03:55:30;9.40;;;7.65;;
32838;SDS011;19182;41.820;12.808;2023-06-05T03:58:06;10.32;;;7.80;;
32838;SDS011;19182;41.820;12.808;2023-06-05T04:00:39;12.02;;;7.72;;
32838;SDS011;19182;41.820;12.808;2023-06-05T04:03:06;10.93;;;8.30;;
32838;SDS011;19182;41.820;12.808;2023-06-05T04:05:34;10.52;;;7.97;;
32838;SDS011;19182;41.820;12.808;2023-06-05T04:08:00;12.45;;;8.48;;
32838;SDS011;19182;41.820;12.808;2023-06-05T04:10:27;12.60;;;8.70;;
32838;SDS011;19182;41.820;12.808;2023-06-05T04:12:53;12.85;;;9.13;;
32838;SDS011;19182;41.820;12.808;2023-06-05T04:15:20;13.02;;;8.82;;
32838;SDS011;19182;41.820;12.808;2023-06-05T04:17:45;15.25;;;10.48;;
32838;SDS011;19182;41.820;12.808;2023-06-05T04:20:11;13.95;;;9.48;;
32838;SDS011;19182;41.820;12.808;2023-06-05T04:22:40;16.50;;;9.75;;
32838;SDS011;19182;41.820;12.808;2023-06-05T04:25:07;13.82;;;9.52;;
32838;SDS011;19182;41.820;12.808;2023-06-05T04:27:35;14.77;;;10.38;;
32838;SDS011;19182;41.820;12.808;2023-06-05T04:30:03;15.18;;;9.85;;
32838;SDS011;19182;41.820;12.808;2023-06-05T04:32:30;16.88;;;10.25;;
32838;SDS011;19182;41.820;12.808;2023-06-05T04:34:59;12.68;;;10.15;;
32838;SDS011;19182;41.820;12.808;2023-06-05T04:37:45;15.98;;;9.98;;
32838;SDS011;19182;41.820;12.808;2023-06-05T04:40:11;13.88;;;9.95;;
32838;SDS011;19182;41.820;12.808;2023-06-05T04:42:37;16.40;;;9.95;;
32838;SDS011;19182;41.820;12.808;2023-06-05T04:45:05;17.77;;;11.20;;
32838;SDS011;19182;41.820;12.808;2023-06-05T04:47:34;16.48;;;11.27;;
32838;SDS011;19182;41.820;12.808;2023-06-05T04:50:01;18.15;;;11.50;;
32838;SDS011;19182;41.820;12.808;2023-06-05T04:52:31;17.60;;;10.90;;
32838;SDS011;19182;41.820;12.808;2023-06-05T04:55:00;25.90;;;11.65;;
32838;SDS011;19182;41.820;12.808;2023-06-05T04:57:26;21.23;;;11.43;;
32838;SDS011;19182;41.820;12.808;2023-06-05T04:59:53;18.35;;;11.45;;
32838;SDS011;19182;41.820;12.808;2023-06-05T05:02:19;17.85;;;11.32;;
32838;SDS011;19182;41.820;12.808;2023-06-05T05:04:45;17.55;;;11.70;;
32838;SDS011;19182;41.820;12.808;2023-06-05T05:07:11;16.38;;;11.48;;
32838;SDS011;19182;41.820;12.808;2023-06-05T05:09:47;18.67;;;11.93;;
32838;SDS011;19182;41.820;12.808;2023-06-05T05:12:13;16.48;;;11.73;;
32838;SDS011;19182;41.820;12.808;2023-06-05T05:14:39;19.33;;;12.45;;
32838;SDS011;19182;41.820;12.808;2023-06-05T05:17:06;18.17;;;11.13;;
32838;SDS011;19182;41.820;12.808;2023-06-05T05:19:32;22.67;;;12.15;;
32838;SDS011;19182;41.820;12.808;2023-06-05T05:21:57;19.02;;;11.02;;
32838;SDS011;19182;41.820;12.808;2023-06-05T05:24:23;18.67;;;11.98;;
32838;SDS011;19182;41.820;12.808;2023-06-05T05:26:50;15.35;;;11.25;;
32838;SDS011;19182;41.820;12.808;2023-06-05T05:29:17;19.00;;;10.82;;
32838;SDS011;19182;41.820;12.808;2023-06-05T05:31:44;16.23;;;11.55;;
32838;SDS011;19182;41.820;12.808;2023-06-05T05:34:10;18.20;;;12.38;;
32838;SDS011;19182;41.820;12.808;2023-06-05T05:36:36;23.35;;;12.60;;
32838;SDS011;19182;41.820;12.808;2023-06-05T05:39:02;15.68;;;11.27;;
32838;SDS011;19182;41.820;12.808;2023-06-05T05:41:29;19.05;;;13.75;;
32838;SDS011;19182;41.820;12.808;2023-06-05T05:43:56;21.13;;;13.90;;
32838;SDS011;19182;41.820;12.808;2023-06-05T05:46:22;20.67;;;14.27;;
32838;SDS011;19182;41.820;12.808;2023-06-05T05:48:49;16.33;;;12.80;;
32838;SDS011;19182;41.820;12.808;2023-06-05T05:51:16;26.70;;;14.60;;
32838;SDS011;19182;41.820;12.808;2023-06-05T05:53:42;21.73;;;15.05;;
32838;SDS011;19182;41.820;12.808;2023-06-05T05:56:08;21.23;;;14.90;;
32838;SDS011;19182;41.820;12.808;2023-06-05T05:58:33;24.17;;;14.88;;
32838;SDS011;19182;41.820;12.808;2023-06-05T06:00:59;24.38;;;14.52;;
32838;SDS011;19182;41.820;12.808;2023-06-05T06:03:26;20.63;;;15.52;;
32838;SDS011;19182;41.820;12.808;2023-06-05T06:05:52;25.27;;;15.20;;
32838;SDS011;19182;41.820;12.808;2023-06-05T06:08:18;26.95;;;16.45;;
32838;SDS011;19182;41.820;12.808;2023-06-05T06:10:45;20.60;;;15.00;;
32838;SDS011;19182;41.820;12.808;2023-06-05T06:13:11;23.42;;;15.57;;
32838;SDS011;19182;41.820;12.808;2023-06-05T06:15:37;22.60;;;15.30;;
32838;SDS011;19182;41.820;12.808;2023-06-05T06:18:07;23.23;;;14.90;;
32838;SDS011;19182;41.820;12.808;2023-06-05T06:20:34;23.30;;;14.40;;
32838;SDS011;19182;41.820;12.808;2023-06-05T06:23:06;24.23;;;15.40;;
32838;SDS011;19182;41.820;12.808;2023-06-05T06:25:32;21.05;;;15.23;;
32838;SDS011;19182;41.820;12.808;2023-06-05T06:28:01;25.63;;;15.48;;
32838;SDS011;19182;41.820;12.808;2023-06-05T06:30:27;24.23;;;14.83;;
32838;SDS011;19182;41.820;12.808;2023-06-05T06:32:53;25.20;;;14.63;;
32838;SDS011;19182;41.820;12.808;2023-06-05T06:35:26;22.50;;;15.02;;
32838;SDS011;19182;41.820;12.808;2023-06-05T06:37:52;27.02;;;16.48;;
32838;SDS011;19182;41.820;12.808;2023-06-05T06:40:20;21.65;;;14.35;;
32838;SDS011;19182;41.820;12.808;2023-06-05T06:42:46;28.58;;;15.68;;
32838;SDS011;19182;41.820;12.808;2023-06-05T06:45:11;21.70;;;14.70;;
32838;SDS011;19182;41.820;12.808;2023-06-05T06:47:37;25.15;;;15.35;;
32838;SDS011;19182;41.820;12.808;2023-06-05T06:50:03;24.35;;;15.77;;
32838;SDS011;19182;41.820;12.808;2023-06-05T06:52:30;20.88;;;15.38;;
32838;SDS011;19182;41.820;12.808;2023-06-05T06:54:58;22.60;;;14.90;;
32838;SDS011;19182;41.820;12.808;2023-06-05T06:57:25;23.92;;;14.63;;
32838;SDS011;19182;41.820;12.808;2023-06-05T06:59:50;26.75;;;14.93;;
32838;SDS011;19182;41.820;12.808;2023-06-05T07:02:19;27.50;;;16.50;;
32838;SDS011;19182;41.820;12.808;2023-06-05T07:04:46;25.95;;;16.65;;
32838;SDS011;19182;41.820;12.808;2023-06-05T07:07:14;22.38;;;15.25;;
32838;SDS011;19182;41.820;12.808;2023-06-05T07:09:43;21.77;;;15.80;;
32838;SDS011;19182;41.820;12.808;2023-06-05T07:12:11;18.30;;;12.88;;
32838;SDS011;19182;41.820;12.808;2023-06-05T07:14:38;21.10;;;13.75;;
32838;SDS011;19182;41.820;12.808;2023-06-05T07:17:04;13.60;;;9.68;;
32838;SDS011;19182;41.820;12.808;2023-06-05T07:19:30;16.73;;;10.43;;
32838;SDS011;19182;41.820;12.808;2023-06-05T07:21:58;17.30;;;9.52;;
32838;SDS011;19182;41.820;12.808;2023-06-05T07:24:25;13.27;;;8.73;;
32838;SDS011;19182;41.820;12.808;2023-06-05T07:26:55;15.88;;;7.95;;
32838;SDS011;19182;41.820;12.808;2023-06-05T07:29:22;15.10;;;7.85;;
32838;SDS011;19182;41.820;12.808;2023-06-05T07:31:49;14.20;;;7.93;;
32838;SDS011;19182;41.820;12.808;2023-06-05T07:34:19;9.57;;;6.53;;
32838;SDS011;19182;41.820;12.808;2023-06-05T07:36:46;11.02;;;6.53;;
32838;SDS011;19182;41.820;12.808;2023-06-05T07:39:13;11.98;;;6.60;;
32838;SDS011;19182;41.820;12.808;2023-06-05T07:41:40;9.15;;;5.82;;
32838;SDS011;19182;41.820;12.808;2023-06-05T07:44:09;7.75;;;4.82;;
32838;SDS011;19182;41.820;12.808;2023-06-05T07:46:39;13.60;;;5.05;;
32838;SDS011;19182;41.820;12.808;2023-06-05T07:49:07;7.18;;;4.95;;
32838;SDS011;19182;41.820;12.808;2023-06-05T07:51:34;6.47;;;4.68;;
32838;SDS011;19182;41.820;12.808;2023-06-05T07:54:05;10.73;;;5.13;;
32838;SDS011;19182;41.820;12.808;2023-06-05T07:56:34;23.52;;;5.07;;
32838;SDS011;19182;41.820;12.808;2023-06-05T07:59:01;8.13;;;5.43;;
32838;SDS011;19182;41.820;12.808;2023-06-05T08:01:31;8.10;;;5.80;;
32838;SDS011;19182;41.820;12.808;2023-06-05T08:04:05;9.63;;;5.93;;
32838;SDS011;19182;41.820;12.808;2023-06-05T08:06:32;13.25;;;6.30;;
32838;SDS011;19182;41.820;12.808;2023-06-05T08:08:58;10.98;;;7.05;;
32838;SDS011;19182;41.820;12.808;2023-06-05T08:11:25;10.80;;;7.22;;
32838;SDS011;19182;41.820;12.808;2023-06-05T08:13:53;11.30;;;7.35;;
32838;SDS011;19182;41.820;12.808;2023-06-05T08:16:19;13.98;;;7.93;;
32838;SDS011;19182;41.820;12.808;2023-06-05T08:18:46;11.98;;;8.43;;
32838;SDS011;19182;41.820;12.808;2023-06-05T08:21:12;10.68;;;8.93;;
32838;SDS011;19182;41.820;12.808;2023-06-05T08:23:38;12.75;;;9.70;;
32838;SDS011;19182;41.820;12.808;2023-06-05T08:26:05;11.90;;;8.68;;
32838;SDS011;19182;41.820;12.808;2023-06-05T08:28:39;13.20;;;9.35;;
32838;SDS011;19182;41.820;12.808;2023-06-05T08:31:09;10.27;;;8.63;;
32838;SDS011;19182;41.820;12.808;2023-06-05T08:33:36;9.10;;;7.07;;
32838;SDS011;19182;41.820;12.808;2023-06-05T08:36:03;8.70;;;7.18;;
32838;SDS011;19182;41.820;12.808;2023-06-05T08:38:29;10.32;;;6.95;;
32838;SDS011;19182;41.820;12.808;2023-06-05T08:40:56;16.20;;;7.53;;
32838;SDS011;19182;41.820;12.808;2023-06-05T08:43:25;9.57;;;6.93;;
32838;SDS011;19182;41.820;12.808;2023-06-05T08:45:51;11.10;;;6.25;;
32838;SDS011;19182;41.820;12.808;2023-06-05T08:48:20;8.50;;;6.05;;
32838;SDS011;19182;41.820;12.808;2023-06-05T08:50:50;10.18;;;6.82;;
32838;SDS011;19182;41.820;12.808;2023-06-05T08:53:17;10.20;;;7.22;;
32838;SDS011;19182;41.820;12.808;2023-06-05T08:55:45;9.85;;;7.70;;
32838;SDS011;19182;41.820;12.808;2023-06-05T08:58:16;10.02;;;7.53;;
32838;SDS011;19182;41.820;12.808;2023-06-05T09:00:43;10.63;;;6.78;;
32838;SDS011;19182;41.820;12.808;2023-06-05T09:03:10;10.70;;;6.53;;
32838;SDS011;19182;41.820;12.808;2023-06-05T09:05:38;7.65;;;6.35;;
32838;SDS011;19182;41.820;12.808;2023-06-05T09:08:03;7.40;;;5.95;;
32838;SDS011;19182;41.820;12.808;2023-06-05T09:10:31;13.98;;;6.90;;
32838;SDS011;19182;41.820;12.808;2023-06-05T09:13:00;9.48;;;7.38;;
32838;SDS011;19182;41.820;12.808;2023-06-05T09:15:31;9.65;;;7.00;;
32838;SDS011;19182;41.820;12.808;2023-06-05T09:18:09;11.43;;;8.30;;
32838;SDS011;19182;41.820;12.808;2023-06-05T09:20:42;10.00;;;7.72;;
32838;SDS011;19182;41.820;12.808;2023-06-05T09:26:01;13.18;;;7.00;;
32838;SDS011;19182;41.820;12.808;2023-06-05T09:28:28;11.52;;;6.75;;
32838;SDS011;19182;41.820;12.808;2023-06-05T09:30:56;11.48;;;7.50;;
32838;SDS011;19182;41.820;12.808;2023-06-05T09:33:24;8.70;;;7.38;;
32838;SDS011;19182;41.820;12.808;2023-06-05T09:38:28;16.80;;;8.80;;
32838;SDS011;19182;41.820;12.808;2023-06-05T09:41:05;10.77;;;8.70;;
32838;SDS011;19182;41.820;12.808;2023-06-05T09:43:43;10.38;;;7.68;;
32838;SDS011;19182;41.820;12.808;2023-06-05T09:46:14;16.67;;;7.68;;
32838;SDS011;19182;41.820;12.808;2023-06-05T09:48:41;8.43;;;5.88;;
32838;SDS011;19182;41.820;12.808;2023-06-05T09:51:15;7.80;;;5.75;;
32838;SDS011;19182;41.820;12.808;2023-06-05T09:53:46;9.02;;;5.93;;
32838;SDS011;19182;41.820;12.808;2023-06-05T09:56:22;9.07;;;4.30;;
32838;SDS011;19182;41.820;12.808;2023-06-05T09:58:48;7.53;;;4.85;;
32838;SDS011;19182;41.820;12.808;2023-06-05T10:01:17;5.43;;;3.78;;
32838;SDS011;19182;41.820;12.808;2023-06-05T10:03:50;5.47;;;3.95;;
32838;SDS011;19182;41.820;12.808;2023-06-05T10:06:26;10.03;;;4.50;;
32838;SDS011;19182;41.820;12.808;2023-06-05T10:08:57;7.03;;;3.85;;
32838;SDS011;19182;41.820;12.808;2023-06-05T10:11:25;5.75;;;4.20;;
32838;SDS011;19182;41.820;12.808;2023-06-05T10:13:53;7.85;;;3.83;;
32838;SDS011;19182;41.820;12.808;2023-06-05T10:16:19;6.95;;;3.83;;
32838;SDS011;19182;41.820;12.808;2023-06-05T10:18:47;8.02;;;4.68;;
32838;SDS011;19182;41.820;12.808;2023-06-05T10:21:14;15.65;;;5.60;;
32838;SDS011;19182;41.820;12.808;2023-06-05T10:24:05;10.07;;;5.53;;
32838;SDS011;19182;41.820;12.808;2023-06-05T10:31:48;9.73;;;5.78;;
32838;SDS011;19182;41.820;12.808;2023-06-05T10:39:49;13.07;;;6.22;;
32838;SDS011;19182;41.820;12.808;2023-06-05T10:42:28;9.50;;;5.70;;
32838;SDS011;19182;41.820;12.808;2023-06-05T10:52:41;9.90;;;7.07;;
32838;SDS011;19182;41.820;12.808;2023-06-05T10:55:07;13.13;;;7.75;;
32838;SDS011;19182;41.820;12.808;2023-06-05T11:00:32;12.43;;;8.23;;
32838;SDS011;19182;41.820;12.808;2023-06-05T11:02:59;10.43;;;7.68;;
32838;SDS011;19182;41.820;12.808;2023-06-05T11:05:25;11.57;;;7.50;;
32838;SDS011;19182;41.820;12.808;2023-06-05T11:10:36;9.75;;;6.25;;
32838;SDS011;19182;41.820;12.808;2023-06-05T11:13:02;7.70;;;5.35;;
32838;SDS011;19182;41.820;12.808;2023-06-05T11:17:53;9.05;;;5.25;;
32838;SDS011;19182;41.820;12.808;2023-06-05T11:25:26;6.03;;;4.47;;
32838;SDS011;19182;41.820;12.808;2023-06-05T11:27:59;6.15;;;4.57;;
32838;SDS011;19182;41.820;12.808;2023-06-05T11:30:38;5.85;;;4.47;;
32838;SDS011;19182;41.820;12.808;2023-06-05T11:33:10;5.50;;;4.47;;
32838;SDS011;19182;41.820;12.808;2023-06-05T11:35:41;7.20;;;4.78;;
32838;SDS011;19182;41.820;12.808;2023-06-05T11:38:18;7.10;;;4.67;;
32838;SDS011;19182;41.820;12.808;2023-06-05T11:40:47;5.30;;;4.28;;
32838;SDS011;19182;41.820;12.808;2023-06-05T11:43:12;4.97;;;3.85;;
32838;SDS011;19182;41.820;12.808;2023-06-05T11:45:41;6.20;;;4.18;;
32838;SDS011;19182;41.820;12.808;2023-06-05T11:48:13;6.18;;;4.28;;
32838;SDS011;19182;41.820;12.808;2023-06-05T11:53:42;5.93;;;4.32;;
32838;SDS011;19182;41.820;12.808;2023-06-05T11:56:13;8.68;;;4.15;;
32838;SDS011;19182;41.820;12.808;2023-06-05T11:58:41;5.82;;;3.50;;
32838;SDS011;19182;41.820;12.808;2023-06-05T12:03:43;5.35;;;4.40;;
32838;SDS011;19182;41.820;12.808;2023-06-05T12:06:10;8.10;;;4.15;;
32838;SDS011;19182;41.820;12.808;2023-06-05T12:08:41;6.70;;;4.38;;
32838;SDS011;19182;41.820;12.808;2023-06-05T12:11:23;3.85;;;3.45;;
32838;SDS011;19182;41.820;12.808;2023-06-05T12:13:51;7.80;;;3.95;;
32838;SDS011;19182;41.820;12.808;2023-06-05T12:16:18;5.75;;;3.13;;
32838;SDS011;19182;41.820;12.808;2023-06-05T12:18:45;4.28;;;2.80;;
32838;SDS011;19182;41.820;12.808;2023-06-05T12:21:22;4.80;;;2.90;;
32838;SDS011;19182;41.820;12.808;2023-06-05T12:23:49;6.45;;;2.70;;
32838;SDS011;19182;41.820;12.808;2023-06-05T12:26:17;4.88;;;2.88;;
32838;SDS011;19182;41.820;12.808;2023-06-05T12:28:45;5.05;;;3.13;;
32838;SDS011;19182;41.820;12.808;2023-06-05T12:31:31;4.80;;;3.20;;
32838;SDS011;19182;41.820;12.808;2023-06-05T12:34:04;4.47;;;3.10;;
32838;SDS011;19182;41.820;12.808;2023-06-05T12:36:31;4.60;;;3.42;;
32838;SDS011;19182;41.820;12.808;2023-06-05T12:39:11;6.10;;;3.30;;
32838;SDS011;19182;41.820;12.808;2023-06-05T12:41:37;4.47;;;3.42;;
32838;SDS011;19182;41.820;12.808;2023-06-05T12:44:05;4.88;;;3.22;;
32838;SDS011;19182;41.820;12.808;2023-06-05T12:46:32;5.53;;;3.05;;
32838;SDS011;19182;41.820;12.808;2023-06-05T12:49:04;5.90;;;3.28;;
32838;SDS011;19182;41.820;12.808;2023-06-05T12:51:30;7.13;;;4.10;;
32838;SDS011;19182;41.820;12.808;2023-06-05T12:53:57;6.00;;;3.80;;
32838;SDS011;19182;41.820;12.808;2023-06-05T12:56:25;4.68;;;3.67;;
32838;SDS011;19182;41.820;12.808;2023-06-05T13:01:26;4.68;;;4.00;;
32838;SDS011;19182;41.820;12.808;2023-06-05T13:03:54;7.13;;;4.20;;
32838;SDS011;19182;41.820;12.808;2023-06-05T13:06:20;7.05;;;3.97;;
32838;SDS011;19182;41.820;12.808;2023-06-05T13:08:46;6.40;;;4.28;;
32838;SDS011;19182;41.820;12.808;2023-06-05T13:11:13;6.57;;;3.88;;
32838;SDS011;19182;41.820;12.808;2023-06-05T13:13:39;5.18;;;3.90;;
32838;SDS011;19182;41.820;12.808;2023-06-05T13:16:05;5.60;;;3.67;;
32838;SDS011;19182;41.820;12.808;2023-06-05T13:18:32;7.43;;;3.95;;
32838;SDS011;19182;41.820;12.808;2023-06-05T13:21:00;4.82;;;3.70;;
32838;SDS011;19182;41.820;12.808;2023-06-05T13:23:28;7.38;;;4.10;;
32838;SDS011;19182;41.820;12.808;2023-06-05T13:25:54;9.80;;;5.30;;
32838;SDS011;19182;41.820;12.808;2023-06-05T13:28:20;9.10;;;5.82;;
32838;SDS011;19182;41.820;12.808;2023-06-05T13:30:46;7.93;;;5.18;;
32838;SDS011;19182;41.820;12.808;2023-06-05T13:33:12;6.50;;;5.18;;
32838;SDS011;19182;41.820;12.808;2023-06-05T13:35:38;5.75;;;4.90;;
32838;SDS011;19182;41.820;12.808;2023-06-05T13:38:06;6.63;;;5.00;;
32838;SDS011;19182;41.820;12.808;2023-06-05T13:40:32;8.63;;;5.60;;
32838;SDS011;19182;41.820;12.808;2023-06-05T13:42:59;9.30;;;5.90;;
32838;SDS011;19182;41.820;12.808;2023-06-05T13:45:26;6.65;;;4.70;;
32838;SDS011;19182;41.820;12.808;2023-06-05T13:47:52;8.05;;;3.97;;
32838;SDS011;19182;41.820;12.808;2023-06-05T13:50:20;11.45;;;3.60;;
32838;SDS011;19182;41.820;12.808;2023-06-05T13:52:47;10.18;;;3.78;;
32838;SDS011;19182;41.820;12.808;2023-06-05T13:55:14;9.40;;;4.70;;
32838;SDS011;19182;41.820;12.808;2023-06-05T13:57:41;12.52;;;4.45;;
32838;SDS011;19182;41.820;12.808;2023-06-05T14:00:07;10.98;;;5.07;;
32838;SDS011;19182;41.820;12.808;2023-06-05T14:02:33;9.27;;;5.20;;
32838;SDS011;19182;41.820;12.808;2023-06-05T14:05:00;10.85;;;5.68;;
32838;SDS011;19182;41.820;12.808;2023-06-05T14:07:27;16.23;;;4.85;;
32838;SDS011;19182;41.820;12.808;2023-06-05T14:09:54;10.27;;;5.05;;
32838;SDS011;19182;41.820;12.808;2023-06-05T14:12:21;7.63;;;4.53;;
32838;SDS011;19182;41.820;12.808;2023-06-05T14:14:47;8.75;;;4.90;;
32838;SDS011;19182;41.820;12.808;2023-06-05T14:17:15;10.75;;;4.53;;
32838;SDS011;19182;41.820;12.808;2023-06-05T14:19:41;7.32;;;4.40;;
32838;SDS011;19182;41.820;12.808;2023-06-05T14:22:06;8.82;;;5.55;;
32838;SDS011;19182;41.820;12.808;2023-06-05T14:24:33;8.90;;;5.85;;
32838;SDS011;19182;41.820;12.808;2023-06-05T14:27:00;8.20;;;5.70;;
32838;SDS011;19182;41.820;12.808;2023-06-05T14:29:27;10.45;;;6.28;;
32838;SDS011;19182;41.820;12.808;2023-06-05T14:31:53;8.68;;;5.90;;
32838;SDS011;19182;41.820;12.808;2023-06-05T14:34:18;9.80;;;5.63;;
32838;SDS011;19182;41.820;12.808;2023-06-05T14:36:45;9.55;;;6.55;;
32838;SDS011;19182;41.820;12.808;2023-06-05T14:39:16;10.55;;;6.25;;
32838;SDS011;19182;41.820;12.808;2023-06-05T14:41:43;10.63;;;5.93;;
32838;SDS011;19182;41.820;12.808;2023-06-05T14:44:11;6.78;;;5.57;;
32838;SDS011;19182;41.820;12.808;2023-06-05T14:46:36;9.63;;;5.20;;
32838;SDS011;19182;41.820;12.808;2023-06-05T14:49:04;7.88;;;6.00;;
32838;SDS011;19182;41.820;12.808;2023-06-05T14:51:31;10.90;;;6.28;;
32838;SDS011;19182;41.820;12.808;2023-06-05T14:53:57;12.00;;;6.13;;
32838;SDS011;19182;41.820;12.808;2023-06-05T14:56:23;8.98;;;5.70;;
32838;SDS011;19182;41.820;12.808;2023-06-05T14:58:48;10.23;;;5.30;;
32838;SDS011;19182;41.820;12.808;2023-06-05T15:01:17;10.38;;;5.68;;
32838;SDS011;19182;41.820;12.808;2023-06-05T15:03:42;8.60;;;6.25;;
32838;SDS011;19182;41.820;12.808;2023-06-05T15:06:10;9.90;;;6.03;;
32838;SDS011;19182;41.820;12.808;2023-06-05T15:08:37;9.98;;;6.20;;
32838;SDS011;19182;41.820;12.808;2023-06-05T15:11:04;9.23;;;5.68;;
32838;SDS011;19182;41.820;12.808;2023-06-05T15:13:31;10.32;;;5.82;;